sensor_id;sensor_type;location;lat;lon;timestamp;pressure;altitude;pressure_sealevel;temperature;humidity
49063;BME280;34876;51.464;-0.150;2023-07-30T00:00:08;100854.75;;;23.26;47.29
49063;BME280;34876;51.464;-0.150;2023-07-30T00:03:31;100849.91;;;23.26;47.31
49063;BME280;34876;51.464;-0.150;2023-07-30T00:06:01;100847.77;;;23.24;47.33
49063;BME280;34876;51.464;-0.150;2023-07-30T00:08:32;100842.77;;;23.25;47.33
49063;BME280;34876;51.464;-0.150;2023-07-30T00:11:01;100850.02;;;23.25;47.31
49063;BME280;34876;51.464;-0.150;2023-07-30T00:13:29;100850.79;;;22.96;47.69
49063;BME280;34876;51.464;-0.150;2023-07-30T00:15:57;100845.71;;;23.20;47.44
49063;BME280;34876;51.464;-0.150;2023-07-30T00:18:27;100839.72;;;23.23;47.36
49063;BME280;34876;51.464;-0.150;2023-07-30T00:20:56;100842.17;;;23.25;47.31
49063;BME280;34876;51.464;-0.150;2023-07-30T00:23:26;100844.68;;;23.25;47.29
49063;BME280;34876;51.464;-0.150;2023-07-30T00:25:56;100848.96;;;23.24;47.32
49063;BME280;34876;51.464;-0.150;2023-07-30T00:28:26;100844.20;;;23.24;47.29
49063;BME280;34876;51.464;-0.150;2023-07-30T00:30:55;100844.47;;;23.21;47.35
49063;BME280;34876;51.464;-0.150;2023-07-30T00:33:24;100844.22;;;23.24;47.30
49063;BME280;34876;51.464;-0.150;2023-07-30T00:35:53;100846.34;;;23.22;47.35
49063;BME280;34876;51.464;-0.150;2023-07-30T00:38:23;100845.45;;;23.23;47.30
49063;BME280;34876;51.464;-0.150;2023-07-30T00:40:51;100844.33;;;23.24;47.30
49063;BME280;34876;51.464;-0.150;2023-07-30T00:43:21;100846.95;;;23.23;47.28
49063;BME280;34876;51.464;-0.150;2023-07-30T00:45:51;100846.21;;;23.19;47.41
49063;BME280;34876;51.464;-0.150;2023-07-30T00:48:21;100845.64;;;23.21;47.34
49063;BME280;34876;51.464;-0.150;2023-07-30T00:50:51;100850.95;;;23.23;47.30
49063;BME280;34876;51.464;-0.150;2023-07-30T00:53:22;100853.74;;;23.21;47.36
49063;BME280;34876;51.464;-0.150;2023-07-30T00:55:53;100852.32;;;23.22;47.31
49063;BME280;34876;51.464;-0.150;2023-07-30T00:58:23;100848.75;;;23.20;47.34
49063;BME280;34876;51.464;-0.150;2023-07-30T01:00:53;100845.02;;;23.19;47.38
49063;BME280;34876;51.464;-0.150;2023-07-30T01:03:23;100847.68;;;23.19;47.35
49063;BME280;34876;51.464;-0.150;2023-07-30T01:05:52;100854.87;;;23.19;47.37
49063;BME280;34876;51.464;-0.150;2023-07-30T01:08:22;100853.08;;;23.21;47.29
49063;BME280;34876;51.464;-0.150;2023-07-30T01:10:52;100855.62;;;23.17;47.39
49063;BME280;34876;51.464;-0.150;2023-07-30T01:13:23;100855.17;;;23.19;47.32
49063;BME280;34876;51.464;-0.150;2023-07-30T01:15:53;100851.79;;;23.19;47.33
49063;BME280;34876;51.464;-0.150;2023-07-30T01:18:23;100857.82;;;23.17;47.39
49063;BME280;34876;51.464;-0.150;2023-07-30T01:20:54;100860.67;;;23.19;47.31
49063;BME280;34876;51.464;-0.150;2023-07-30T01:23:26;100858.88;;;23.17;47.38
49063;BME280;34876;51.464;-0.150;2023-07-30T01:26:01;100860.95;;;23.18;47.35
49063;BME280;34876;51.464;-0.150;2023-07-30T01:28:36;100861.20;;;23.21;47.26
49063;BME280;34876;51.464;-0.150;2023-07-30T01:31:07;100863.49;;;23.24;47.15
49063;BME280;34876;51.464;-0.150;2023-07-30T01:33:38;100861.61;;;23.22;47.20
49063;BME280;34876;51.464;-0.150;2023-07-30T01:36:11;100862.49;;;23.17;45.20
49063;BME280;34876;51.464;-0.150;2023-07-30T01:38:44;100861.06;;;23.23;47.15
49063;BME280;34876;51.464;-0.150;2023-07-30T01:41:15;100860.42;;;23.23;47.13
49063;BME280;34876;51.464;-0.150;2023-07-30T01:43:44;100857.72;;;23.25;47.08
49063;BME280;34876;51.464;-0.150;2023-07-30T01:46:13;100860.40;;;23.25;47.04
49063;BME280;34876;51.464;-0.150;2023-07-30T01:48:43;100857.84;;;23.23;47.10
49063;BME280;34876;51.464;-0.150;2023-07-30T01:51:12;100864.56;;;23.15;47.25
49063;BME280;34876;51.464;-0.150;2023-07-30T01:53:41;100858.74;;;23.23;47.04
49063;BME280;34876;51.464;-0.150;2023-07-30T01:56:10;100860.71;;;23.24;47.01
49063;BME280;34876;51.464;-0.150;2023-07-30T01:58:39;100866.62;;;23.24;47.02
49063;BME280;34876;51.464;-0.150;2023-07-30T02:01:07;100868.00;;;23.22;47.09
49063;BME280;34876;51.464;-0.150;2023-07-30T02:03:36;100866.80;;;23.17;47.16
49063;BME280;34876;51.464;-0.150;2023-07-30T02:06:05;100871.46;;;23.17;47.09
49063;BME280;34876;51.464;-0.150;2023-07-30T02:08:35;100871.60;;;23.19;47.08
49063;BME280;34876;51.464;-0.150;2023-07-30T02:11:04;100874.97;;;23.20;47.08
49063;BME280;34876;51.464;-0.150;2023-07-30T02:13:33;100870.57;;;23.20;47.02
49063;BME280;34876;51.464;-0.150;2023-07-30T02:16:03;100868.45;;;23.18;47.10
49063;BME280;34876;51.464;-0.150;2023-07-30T02:18:39;100862.51;;;23.17;47.10
49063;BME280;34876;51.464;-0.150;2023-07-30T02:21:08;100867.06;;;23.18;47.05
49063;BME280;34876;51.464;-0.150;2023-07-30T02:23:38;100864.32;;;23.17;47.08
49063;BME280;34876;51.464;-0.150;2023-07-30T02:26:08;100866.96;;;23.04;47.41
49063;BME280;34876;51.464;-0.150;2023-07-30T02:28:38;100863.83;;;23.04;47.36
49063;BME280;34876;51.464;-0.150;2023-07-30T02:31:08;100864.63;;;23.09;47.24
49063;BME280;34876;51.464;-0.150;2023-07-30T02:33:39;100866.94;;;22.94;47.61
49063;BME280;34876;51.464;-0.150;2023-07-30T02:36:10;100866.61;;;22.73;48.11
49063;BME280;34876;51.464;-0.150;2023-07-30T02:38:39;100864.22;;;23.04;47.39
49063;BME280;34876;51.464;-0.150;2023-07-30T02:41:08;100858.34;;;22.96;47.37
49063;BME280;34876;51.464;-0.150;2023-07-30T02:43:38;100855.56;;;23.06;47.27
49063;BME280;34876;51.464;-0.150;2023-07-30T02:46:07;100856.37;;;23.01;44.75
49063;BME280;34876;51.464;-0.150;2023-07-30T02:48:36;100865.78;;;23.10;47.18
49063;BME280;34876;51.464;-0.150;2023-07-30T02:51:05;100865.25;;;23.02;47.33
49063;BME280;34876;51.464;-0.150;2023-07-30T02:53:35;100863.52;;;22.77;47.89
49063;BME280;34876;51.464;-0.150;2023-07-30T02:56:04;100869.52;;;22.95;47.46
49063;BME280;34876;51.464;-0.150;2023-07-30T02:58:33;100868.41;;;22.88;47.47
49063;BME280;34876;51.464;-0.150;2023-07-30T03:01:07;100865.96;;;22.61;48.04
49063;BME280;34876;51.464;-0.150;2023-07-30T03:03:36;100857.45;;;22.70;45.09
49063;BME280;34876;51.464;-0.150;2023-07-30T03:06:06;100855.59;;;22.75;47.96
49063;BME280;34876;51.464;-0.150;2023-07-30T03:08:35;100857.82;;;22.95;47.46
49063;BME280;34876;51.464;-0.150;2023-07-30T03:11:04;100866.24;;;22.95;47.44
49063;BME280;34876;51.464;-0.150;2023-07-30T03:13:33;100864.59;;;22.98;47.45
49063;BME280;34876;51.464;-0.150;2023-07-30T03:16:03;100866.03;;;22.64;48.17
49063;BME280;34876;51.464;-0.150;2023-07-30T03:18:32;100865.72;;;22.62;45.29
49063;BME280;34876;51.464;-0.150;2023-07-30T03:21:02;100869.16;;;22.90;46.31
49063;BME280;34876;51.464;-0.150;2023-07-30T03:23:34;100871.20;;;22.95;47.45
49063;BME280;34876;51.464;-0.150;2023-07-30T03:26:05;100870.76;;;22.92;47.68
49063;BME280;34876;51.464;-0.150;2023-07-30T03:28:34;100866.10;;;22.84;47.77
49063;BME280;34876;51.464;-0.150;2023-07-30T03:31:03;100859.25;;;22.95;47.47
49063;BME280;34876;51.464;-0.150;2023-07-30T03:33:32;100859.60;;;22.97;47.43
49063;BME280;34876;51.464;-0.150;2023-07-30T03:36:01;100866.71;;;22.99;47.35
49063;BME280;34876;51.464;-0.150;2023-07-30T03:38:31;100873.00;;;22.98;47.37
49063;BME280;34876;51.464;-0.150;2023-07-30T03:41:00;100874.91;;;22.94;47.45
49063;BME280;34876;51.464;-0.150;2023-07-30T03:43:31;100870.54;;;22.99;47.30
49063;BME280;34876;51.464;-0.150;2023-07-30T03:46:01;100877.14;;;22.99;47.33
49063;BME280;34876;51.464;-0.150;2023-07-30T03:48:33;100877.14;;;22.99;47.30
49063;BME280;34876;51.464;-0.150;2023-07-30T03:51:03;100874.51;;;22.99;47.31
49063;BME280;34876;51.464;-0.150;2023-07-30T03:53:33;100874.72;;;22.97;47.36
49063;BME280;34876;51.464;-0.150;2023-07-30T03:56:02;100880.57;;;23.03;47.18
49063;BME280;34876;51.464;-0.150;2023-07-30T03:58:32;100883.01;;;23.06;47.11
49063;BME280;34876;51.464;-0.150;2023-07-30T04:01:02;100883.11;;;23.06;47.05
49063;BME280;34876;51.464;-0.150;2023-07-30T04:03:30;100885.16;;;23.07;47.02
49063;BME280;34876;51.464;-0.150;2023-07-30T04:05:59;100889.68;;;23.03;47.11
49063;BME280;34876;51.464;-0.150;2023-07-30T04:08:29;100888.22;;;23.02;47.13
49063;BME280;34876;51.464;-0.150;2023-07-30T04:10:58;100892.78;;;23.02;47.10
49063;BME280;34876;51.464;-0.150;2023-07-30T04:13:28;100893.96;;;23.02;47.05
49063;BME280;34876;51.464;-0.150;2023-07-30T04:15:58;100895.66;;;23.04;47.00
49063;BME280;34876;51.464;-0.150;2023-07-30T04:18:29;100890.56;;;23.03;47.02
49063;BME280;34876;51.464;-0.150;2023-07-30T04:20:58;100895.47;;;22.92;47.30
49063;BME280;34876;51.464;-0.150;2023-07-30T04:23:27;100890.87;;;22.98;47.09
49063;BME280;34876;51.464;-0.150;2023-07-30T04:25:58;100886.10;;;22.94;47.17
49063;BME280;34876;51.464;-0.150;2023-07-30T04:28:27;100888.45;;;22.97;47.09
49063;BME280;34876;51.464;-0.150;2023-07-30T04:30:56;100888.15;;;22.99;47.03
49063;BME280;34876;51.464;-0.150;2023-07-30T04:33:26;100885.64;;;22.96;47.10
49063;BME280;34876;51.464;-0.150;2023-07-30T04:35:56;100884.10;;;22.99;46.99
49063;BME280;34876;51.464;-0.150;2023-07-30T04:38:26;100885.70;;;22.89;47.19
49063;BME280;34876;51.464;-0.150;2023-07-30T04:40:57;100889.73;;;22.93;47.13
49063;BME280;34876;51.464;-0.150;2023-07-30T04:43:28;100893.28;;;22.85;47.30
49063;BME280;34876;51.464;-0.150;2023-07-30T04:45:59;100889.80;;;22.98;47.01
49063;BME280;34876;51.464;-0.150;2023-07-30T04:48:28;100893.32;;;22.68;47.49
49063;BME280;34876;51.464;-0.150;2023-07-30T04:50:57;100894.57;;;22.88;47.23
49063;BME280;34876;51.464;-0.150;2023-07-30T04:53:26;100896.89;;;22.81;45.57
49063;BME280;34876;51.464;-0.150;2023-07-30T04:55:55;100902.60;;;22.94;47.02
49063;BME280;34876;51.464;-0.150;2023-07-30T04:58:25;100901.36;;;22.91;47.05
49063;BME280;34876;51.464;-0.150;2023-07-30T05:00:54;100906.67;;;22.99;46.89
49063;BME280;34876;51.464;-0.150;2023-07-30T05:03:23;100906.76;;;22.93;47.00
49063;BME280;34876;51.464;-0.150;2023-07-30T05:05:54;100907.59;;;22.91;47.04
49063;BME280;34876;51.464;-0.150;2023-07-30T05:08:23;100912.08;;;23.22;46.23
49063;BME280;34876;51.464;-0.150;2023-07-30T05:10:52;100917.88;;;23.08;46.54
49063;BME280;34876;51.464;-0.150;2023-07-30T05:13:21;100921.60;;;22.97;46.86
49063;BME280;34876;51.464;-0.150;2023-07-30T05:15:52;100923.63;;;23.04;46.68
49063;BME280;34876;51.464;-0.150;2023-07-30T05:18:22;100925.83;;;23.08;46.56
49063;BME280;34876;51.464;-0.150;2023-07-30T05:20:52;100924.44;;;22.80;47.17
49063;BME280;34876;51.464;-0.150;2023-07-30T05:23:21;100925.24;;;22.91;46.92
49063;BME280;34876;51.464;-0.150;2023-07-30T05:25:53;100923.17;;;22.91;46.96
49063;BME280;34876;51.464;-0.150;2023-07-30T05:28:22;100924.60;;;22.97;46.79
49063;BME280;34876;51.464;-0.150;2023-07-30T05:30:51;100928.13;;;23.03;46.66
49063;BME280;34876;51.464;-0.150;2023-07-30T05:33:21;100926.62;;;23.05;46.61
49063;BME280;34876;51.464;-0.150;2023-07-30T05:35:50;100933.39;;;23.11;46.43
49063;BME280;34876;51.464;-0.150;2023-07-30T05:38:19;100936.70;;;22.72;47.30
49063;BME280;34876;51.464;-0.150;2023-07-30T05:40:48;100936.29;;;22.90;46.87
49063;BME280;34876;51.464;-0.150;2023-07-30T05:43:18;100941.26;;;23.01;46.68
49063;BME280;34876;51.464;-0.150;2023-07-30T05:45:48;100940.33;;;23.00;46.71
49063;BME280;34876;51.464;-0.150;2023-07-30T05:48:19;100943.25;;;23.03;46.62
49063;BME280;34876;51.464;-0.150;2023-07-30T05:50:49;100943.94;;;22.95;46.79
49063;BME280;34876;51.464;-0.150;2023-07-30T05:53:19;100942.17;;;23.03;46.58
49063;BME280;34876;51.464;-0.150;2023-07-30T05:55:50;100948.79;;;23.04;46.57
49063;BME280;34876;51.464;-0.150;2023-07-30T05:58:21;100958.12;;;22.96;46.79
49063;BME280;34876;51.464;-0.150;2023-07-30T06:00:51;100964.70;;;22.96;46.74
49063;BME280;34876;51.464;-0.150;2023-07-30T06:03:20;100964.07;;;22.99;46.69
49063;BME280;34876;51.464;-0.150;2023-07-30T06:05:51;100963.54;;;22.86;46.95
49063;BME280;34876;51.464;-0.150;2023-07-30T06:08:21;100964.93;;;22.70;46.35
49063;BME280;34876;51.464;-0.150;2023-07-30T06:10:51;100965.54;;;23.04;46.56
49063;BME280;34876;51.464;-0.150;2023-07-30T06:13:19;100964.05;;;22.92;46.84
49063;BME280;34876;51.464;-0.150;2023-07-30T06:15:48;100957.22;;;22.92;46.70
49063;BME280;34876;51.464;-0.150;2023-07-30T06:18:17;100957.46;;;22.96;46.70
49063;BME280;34876;51.464;-0.150;2023-07-30T06:20:46;100964.87;;;22.97;46.66
49063;BME280;34876;51.464;-0.150;2023-07-30T06:23:15;100973.59;;;22.79;47.09
49063;BME280;34876;51.464;-0.150;2023-07-30T06:25:46;100976.58;;;22.93;46.82
49063;BME280;34876;51.464;-0.150;2023-07-30T06:28:14;100982.41;;;22.77;47.19
49063;BME280;34876;51.464;-0.150;2023-07-30T06:30:44;100986.78;;;22.87;46.98
49063;BME280;34876;51.464;-0.150;2023-07-30T06:33:14;100983.66;;;22.96;46.71
49063;BME280;34876;51.464;-0.150;2023-07-30T06:35:47;100986.70;;;22.97;46.67
49063;BME280;34876;51.464;-0.150;2023-07-30T06:38:15;100983.37;;;22.65;46.89
49063;BME280;34876;51.464;-0.150;2023-07-30T06:40:44;100988.30;;;22.89;46.89
49063;BME280;34876;51.464;-0.150;2023-07-30T06:43:14;100986.48;;;22.94;46.68
49063;BME280;34876;51.464;-0.150;2023-07-30T06:45:44;100985.34;;;22.99;46.60
49063;BME280;34876;51.464;-0.150;2023-07-30T06:48:13;100982.58;;;22.89;45.13
49063;BME280;34876;51.464;-0.150;2023-07-30T06:50:42;100988.82;;;22.99;46.52
49063;BME280;34876;51.464;-0.150;2023-07-30T06:53:11;100991.64;;;22.57;45.54
49063;BME280;34876;51.464;-0.150;2023-07-30T06:55:40;100992.49;;;22.94;46.73
49063;BME280;34876;51.464;-0.150;2023-07-30T06:58:11;100993.29;;;23.04;46.49
49063;BME280;34876;51.464;-0.150;2023-07-30T07:00:40;100997.60;;;22.61;47.39
49063;BME280;34876;51.464;-0.150;2023-07-30T07:03:09;100998.48;;;22.95;46.70
49063;BME280;34876;51.464;-0.150;2023-07-30T07:05:40;100996.54;;;23.00;46.58
49063;BME280;34876;51.464;-0.150;2023-07-30T07:08:10;101004.60;;;23.08;46.37
49063;BME280;34876;51.464;-0.150;2023-07-30T07:10:39;101000.00;;;23.09;46.31
49063;BME280;34876;51.464;-0.150;2023-07-30T07:13:09;100995.47;;;23.16;46.15
49063;BME280;34876;51.464;-0.150;2023-07-30T07:15:38;100993.86;;;23.05;46.23
49063;BME280;34876;51.464;-0.150;2023-07-30T07:18:09;101002.52;;;22.65;47.13
49063;BME280;34876;51.464;-0.150;2023-07-30T07:20:39;100997.35;;;23.03;46.49
49063;BME280;34876;51.464;-0.150;2023-07-30T07:23:08;100997.60;;;23.24;45.96
49063;BME280;34876;51.464;-0.150;2023-07-30T07:25:44;100999.64;;;23.04;46.38
49063;BME280;34876;51.464;-0.150;2023-07-30T07:28:14;100999.56;;;23.02;46.47
49063;BME280;34876;51.464;-0.150;2023-07-30T07:30:43;101007.42;;;23.21;46.02
49063;BME280;34876;51.464;-0.150;2023-07-30T07:33:13;100999.74;;;23.15;46.10
49063;BME280;34876;51.464;-0.150;2023-07-30T07:35:44;101003.92;;;23.17;46.12
49063;BME280;34876;51.464;-0.150;2023-07-30T07:38:14;100998.98;;;23.09;46.27
49063;BME280;34876;51.464;-0.150;2023-07-30T07:40:44;101010.90;;;23.14;46.16
49063;BME280;34876;51.464;-0.150;2023-07-30T07:43:14;101009.42;;;22.81;46.75
49063;BME280;34876;51.464;-0.150;2023-07-30T07:45:45;101011.54;;;22.79;47.00
49063;BME280;34876;51.464;-0.150;2023-07-30T07:48:15;101004.62;;;23.11;46.25
49063;BME280;34876;51.464;-0.150;2023-07-30T07:50:44;101005.25;;;23.10;46.04
49063;BME280;34876;51.464;-0.150;2023-07-30T07:53:14;101008.00;;;23.21;45.92
49063;BME280;34876;51.464;-0.150;2023-07-30T07:55:43;101015.39;;;23.17;46.04
49063;BME280;34876;51.464;-0.150;2023-07-30T07:58:13;101018.61;;;23.16;45.26
49063;BME280;34876;51.464;-0.150;2023-07-30T08:00:42;101021.34;;;23.09;46.22
49063;BME280;34876;51.464;-0.150;2023-07-30T08:03:11;101012.45;;;23.39;45.50
49063;BME280;34876;51.464;-0.150;2023-07-30T08:05:41;101012.85;;;23.16;46.02
49063;BME280;34876;51.464;-0.150;2023-07-30T08:08:11;101013.03;;;23.16;45.56
49063;BME280;34876;51.464;-0.150;2023-07-30T08:10:41;101015.18;;;22.85;43.33
49063;BME280;34876;51.464;-0.150;2023-07-30T08:13:11;101017.73;;;22.98;43.23
49063;BME280;34876;51.464;-0.150;2023-07-30T08:15:46;101017.88;;;23.16;43.36
49063;BME280;34876;51.464;-0.150;2023-07-30T08:18:16;101013.33;;;23.16;45.27
49063;BME280;34876;51.464;-0.150;2023-07-30T08:20:45;101015.78;;;22.92;45.94
49063;BME280;34876;51.464;-0.150;2023-07-30T08:23:20;101014.15;;;22.88;42.13
49063;BME280;34876;51.464;-0.150;2023-07-30T08:25:53;101004.86;;;23.16;41.75
49063;BME280;34876;51.464;-0.150;2023-07-30T08:28:21;101011.65;;;22.96;46.15
49063;BME280;34876;51.464;-0.150;2023-07-30T08:31:00;101010.94;;;22.85;46.16
49063;BME280;34876;51.464;-0.150;2023-07-30T08:33:29;101012.73;;;22.95;45.98
49063;BME280;34876;51.464;-0.150;2023-07-30T08:36:04;101005.94;;;22.88;42.27
49063;BME280;34876;51.464;-0.150;2023-07-30T08:38:34;101003.78;;;23.05;45.98
49063;BME280;34876;51.464;-0.150;2023-07-30T08:41:03;101011.34;;;22.80;41.61
49063;BME280;34876;51.464;-0.150;2023-07-30T08:43:36;101013.99;;;22.86;45.35
49063;BME280;34876;51.464;-0.150;2023-07-30T08:46:10;101012.25;;;22.92;45.55
49063;BME280;34876;51.464;-0.150;2023-07-30T08:48:44;101019.15;;;22.77;44.86
49063;BME280;34876;51.464;-0.150;2023-07-30T08:51:19;101017.02;;;22.74;43.12
49063;BME280;34876;51.464;-0.150;2023-07-30T08:53:54;101018.68;;;23.03;46.15
49063;BME280;34876;51.464;-0.150;2023-07-30T08:56:31;101019.67;;;22.93;41.98
49063;BME280;34876;51.464;-0.150;2023-07-30T08:59:06;101017.82;;;23.09;45.55
49063;BME280;34876;51.464;-0.150;2023-07-30T09:01:38;101022.92;;;22.88;42.40
49063;BME280;34876;51.464;-0.150;2023-07-30T09:04:14;101022.91;;;23.12;45.57
49063;BME280;34876;51.464;-0.150;2023-07-30T09:06:50;101021.38;;;23.16;44.78
49063;BME280;34876;51.464;-0.150;2023-07-30T09:09:20;101023.52;;;23.09;45.88
49063;BME280;34876;51.464;-0.150;2023-07-30T09:11:51;101025.04;;;23.16;40.81
49063;BME280;34876;51.464;-0.150;2023-07-30T09:14:26;101027.07;;;23.21;45.69
49063;BME280;34876;51.464;-0.150;2023-07-30T09:16:56;101023.01;;;23.12;41.28
49063;BME280;34876;51.464;-0.150;2023-07-30T09:19:25;101026.77;;;23.22;45.50
49063;BME280;34876;51.464;-0.150;2023-07-30T09:22:04;101024.92;;;23.27;45.24
49063;BME280;34876;51.464;-0.150;2023-07-30T09:24:35;101025.56;;;23.41;44.76
49063;BME280;34876;51.464;-0.150;2023-07-30T09:27:06;101025.73;;;23.54;44.86
49063;BME280;34876;51.464;-0.150;2023-07-30T09:29:35;101025.22;;;23.47;44.46
49063;BME280;34876;51.464;-0.150;2023-07-30T09:32:07;101022.90;;;23.66;43.89
49063;BME280;34876;51.464;-0.150;2023-07-30T09:34:44;101022.98;;;23.58;44.65
49063;BME280;34876;51.464;-0.150;2023-07-30T09:37:14;101019.31;;;23.33;40.30
49063;BME280;34876;51.464;-0.150;2023-07-30T09:39:43;101030.27;;;23.18;39.97
49063;BME280;34876;51.464;-0.150;2023-07-30T09:42:13;101032.69;;;23.40;43.26
49063;BME280;34876;51.464;-0.150;2023-07-30T09:44:42;101036.60;;;23.66;40.69
49063;BME280;34876;51.464;-0.150;2023-07-30T09:47:11;101031.91;;;23.91;38.76
49063;BME280;34876;51.464;-0.150;2023-07-30T09:49:42;101040.32;;;23.98;43.68
49063;BME280;34876;51.464;-0.150;2023-07-30T09:52:12;101039.58;;;24.21;43.07
49063;BME280;34876;51.464;-0.150;2023-07-30T09:54:43;101033.60;;;24.03;42.67
49063;BME280;34876;51.464;-0.150;2023-07-30T09:57:12;101033.23;;;24.29;41.02
49063;BME280;34876;51.464;-0.150;2023-07-30T09:59:41;101031.13;;;24.14;40.57
49063;BME280;34876;51.464;-0.150;2023-07-30T10:02:12;101028.56;;;24.01;40.73
49063;BME280;34876;51.464;-0.150;2023-07-30T10:04:45;101029.39;;;24.52;42.12
49063;BME280;34876;51.464;-0.150;2023-07-30T10:07:20;101029.86;;;23.91;41.96
49063;BME280;34876;51.464;-0.150;2023-07-30T10:09:58;101028.85;;;23.91;43.66
49063;BME280;34876;51.464;-0.150;2023-07-30T10:12:32;101029.15;;;23.66;44.30
49063;BME280;34876;51.464;-0.150;2023-07-30T10:15:02;101040.34;;;23.64;44.40
49063;BME280;34876;51.464;-0.150;2023-07-30T10:17:32;101036.73;;;23.58;41.12
49063;BME280;34876;51.464;-0.150;2023-07-30T10:20:24;101047.39;;;23.58;44.54
49063;BME280;34876;51.464;-0.150;2023-07-30T10:22:54;101047.67;;;23.16;45.43
49063;BME280;34876;51.464;-0.150;2023-07-30T10:25:28;101033.49;;;23.36;44.89
49063;BME280;34876;51.464;-0.150;2023-07-30T10:27:58;101039.98;;;23.29;41.97
49063;BME280;34876;51.464;-0.150;2023-07-30T10:30:31;101044.48;;;23.10;43.31
49063;BME280;34876;51.464;-0.150;2023-07-30T10:33:02;101057.20;;;23.13;44.34
49063;BME280;34876;51.464;-0.150;2023-07-30T10:35:37;101055.68;;;23.09;45.96
49063;BME280;34876;51.464;-0.150;2023-07-30T10:38:16;101063.15;;;23.17;45.89
49063;BME280;34876;51.464;-0.150;2023-07-30T10:41:04;101066.08;;;23.27;45.54
49063;BME280;34876;51.464;-0.150;2023-07-30T10:43:35;101059.65;;;23.23;44.98
49063;BME280;34876;51.464;-0.150;2023-07-30T10:46:05;101064.32;;;23.31;44.77
49063;BME280;34876;51.464;-0.150;2023-07-30T10:48:38;101059.95;;;23.33;45.65
49063;BME280;34876;51.464;-0.150;2023-07-30T10:51:09;101057.22;;;23.40;45.49
49063;BME280;34876;51.464;-0.150;2023-07-30T10:53:40;101053.84;;;23.60;45.03
49063;BME280;34876;51.464;-0.150;2023-07-30T10:56:12;101055.73;;;23.65;44.86
49063;BME280;34876;51.464;-0.150;2023-07-30T10:58:43;101057.23;;;23.52;44.46
49063;BME280;34876;51.464;-0.150;2023-07-30T11:01:12;101049.00;;;23.29;45.24
49063;BME280;34876;51.464;-0.150;2023-07-30T11:03:41;101049.03;;;23.40;45.53
49063;BME280;34876;51.464;-0.150;2023-07-30T11:06:11;101052.77;;;23.54;45.25
49063;BME280;34876;51.464;-0.150;2023-07-30T11:08:41;101051.82;;;23.44;45.51
49063;BME280;34876;51.464;-0.150;2023-07-30T11:11:12;101048.23;;;23.52;45.35
49063;BME280;34876;51.464;-0.150;2023-07-30T11:13:46;101047.53;;;23.50;44.04
49063;BME280;34876;51.464;-0.150;2023-07-30T11:16:16;101045.85;;;23.31;45.84
49063;BME280;34876;51.464;-0.150;2023-07-30T11:18:45;101052.96;;;23.21;46.03
49063;BME280;34876;51.464;-0.150;2023-07-30T11:21:18;101058.54;;;23.09;46.29
49063;BME280;34876;51.464;-0.150;2023-07-30T11:23:50;101055.91;;;23.20;46.22
49063;BME280;34876;51.464;-0.150;2023-07-30T11:26:20;101056.72;;;23.18;46.31
49063;BME280;34876;51.464;-0.150;2023-07-30T11:28:50;101062.42;;;23.26;46.16
49063;BME280;34876;51.464;-0.150;2023-07-30T11:31:20;101056.45;;;23.12;46.53
49063;BME280;34876;51.464;-0.150;2023-07-30T11:33:50;101052.52;;;23.17;45.99
49063;BME280;34876;51.464;-0.150;2023-07-30T11:36:21;101049.00;;;22.93;46.56
49063;BME280;34876;51.464;-0.150;2023-07-30T11:38:51;101039.86;;;23.25;46.24
49063;BME280;34876;51.464;-0.150;2023-07-30T11:41:21;101053.84;;;23.19;46.42
49063;BME280;34876;51.464;-0.150;2023-07-30T11:43:54;101057.24;;;23.13;46.58
49063;BME280;34876;51.464;-0.150;2023-07-30T11:46:24;101061.92;;;23.11;46.62
49063;BME280;34876;51.464;-0.150;2023-07-30T11:49:10;101061.89;;;23.20;46.65
49063;BME280;34876;51.464;-0.150;2023-07-30T11:51:41;101056.90;;;23.23;46.39
49063;BME280;34876;51.464;-0.150;2023-07-30T11:54:19;101059.12;;;23.34;46.06
49063;BME280;34876;51.464;-0.150;2023-07-30T11:56:54;101059.52;;;23.00;47.96
49063;BME280;34876;51.464;-0.150;2023-07-30T11:59:24;101061.62;;;23.17;46.56
49063;BME280;34876;51.464;-0.150;2023-07-30T12:01:54;101060.32;;;22.71;47.91
49063;BME280;34876;51.464;-0.150;2023-07-30T12:04:24;101058.49;;;22.93;49.34
49063;BME280;34876;51.464;-0.150;2023-07-30T12:06:53;101059.20;;;22.85;49.54
49063;BME280;34876;51.464;-0.150;2023-07-30T12:09:24;101058.23;;;23.03;47.15
49063;BME280;34876;51.464;-0.150;2023-07-30T12:11:57;101058.88;;;23.14;46.74
49063;BME280;34876;51.464;-0.150;2023-07-30T12:14:27;101060.64;;;22.93;47.37
49063;BME280;34876;51.464;-0.150;2023-07-30T12:16:57;101062.63;;;23.08;46.95
49063;BME280;34876;51.464;-0.150;2023-07-30T12:19:27;101061.91;;;23.07;47.18
49063;BME280;34876;51.464;-0.150;2023-07-30T12:21:57;101058.22;;;22.98;47.49
49063;BME280;34876;51.464;-0.150;2023-07-30T12:24:27;101060.16;;;23.18;46.74
49063;BME280;34876;51.464;-0.150;2023-07-30T12:26:57;101057.13;;;23.11;47.60
49063;BME280;34876;51.464;-0.150;2023-07-30T12:29:27;101053.72;;;23.04;47.28
49063;BME280;34876;51.464;-0.150;2023-07-30T12:31:56;101053.68;;;23.04;47.20
49063;BME280;34876;51.464;-0.150;2023-07-30T12:34:27;101055.98;;;22.99;47.57
49063;BME280;34876;51.464;-0.150;2023-07-30T12:36:56;101053.12;;;23.01;47.47
49063;BME280;34876;51.464;-0.150;2023-07-30T12:39:29;101054.39;;;22.81;48.74
49063;BME280;34876;51.464;-0.150;2023-07-30T12:41:59;101056.67;;;22.80;48.29
49063;BME280;34876;51.464;-0.150;2023-07-30T12:44:27;101058.22;;;23.01;47.47
49063;BME280;34876;51.464;-0.150;2023-07-30T12:46:56;101059.11;;;23.25;46.81
49063;BME280;34876;51.464;-0.150;2023-07-30T12:49:25;101055.16;;;23.05;47.66
49063;BME280;34876;51.464;-0.150;2023-07-30T12:51:54;101055.13;;;22.73;48.39
49063;BME280;34876;51.464;-0.150;2023-07-30T12:54:24;101055.57;;;22.89;51.33
49063;BME280;34876;51.464;-0.150;2023-07-30T12:56:53;101054.60;;;23.08;47.41